Nearby METAR Reports

 

KICL - Clarinda, Iowa, USA
Distance from station: N 49mi, 79km
Updated: Wed, 08-Dec-2021 2:35am CST
Overcast
Overcast
 Wind from SW
Wind: SW 3 mph , 6 km/h
Temperature: 25°F , -4°C
Dew Point: 21°F , -6°C
Humidity: 86%
Barometer: 30.00 inHg , 1015.9 hPa
Clouds: Overcast
Visibility: 10 miles , 16 km
Cloud details: Overcast 8000 ft
2021/12/08 08:35 KICL 080835Z AUTO 22003KT 10SM OVC080 M04/M06 A3000 RMK AO2
KDSM - Des Moines, Iowa, USA
Distance from station: NNE 122mi, 196km
Updated: Wed, 08-Dec-2021 1:54am CST
Overcast
Overcast
 Wind from NW
Wind: NW 8 mph , 13 km/h
Temperature: 21°F , -6°C
Wind Chill: 11°F , -12°C
Dew Point: 16°F , -9°C
Humidity: 80%
Barometer: 29.95 inHg , 1014.2 hPa
Clouds: Overcast
Visibility: 10 miles , 16 km
Cloud details: Few Clouds 12000 ft
Overcast 16000 ft
2021/12/08 07:54 KDSM 080754Z 32007KT 10SM FEW120 OVC160 M06/M09 A2995 RMK AO2 SLP151 T10561089
KFNB - Falls City, Nebraska, USA
Distance from station: W 50mi, 80km
Updated: Wed, 08-Dec-2021 1:53am CST
Clear
Clear
 Wind from E
Wind: E 3 mph , 6 km/h
Temperature: 28°F , -2°C
Dew Point: 19°F , -7°C
Humidity: 69%
Barometer: 29.97 inHg , 1014.9 hPa
Clouds: Clear
Visibility: 10 miles , 16 km
2021/12/08 07:53 KFNB 080753Z AUTO 08003KT 10SM CLR M02/M07 A2997 RMK AO2 SLP156 T10171067 $
 
KMCI - Kansas City, Missouri, USA
Distance from station: S 65mi, 104km
Updated: Wed, 08-Dec-2021 1:53am CST
Overcast
Overcast
 Wind from SW
Wind: SW 5 mph , 7 km/h
Temperature: 30°F , -1°C
Wind Chill: 25°F , -4°C
Dew Point: 21°F , -6°C
Humidity: 69%
Barometer: 29.98 inHg , 1015.2 hPa
Clouds: Overcast
Visibility: 10 miles , 16 km
Cloud details: Overcast 15000 ft
2021/12/08 07:53 KMCI 080753Z 22004KT 10SM OVC150 M01/M06 A2998 RMK AO2 SLP158 T10061061
KOMA - Omaha, Nebraska, USA
Distance from station: NNW 105mi, 169km
Updated: Wed, 08-Dec-2021 1:52am CST
Overcast
Overcast
 Wind from calm
Wind: Calm
Temperature: 25°F , -4°C
Dew Point: 18°F , -8°C
Humidity: 74%
Barometer: 29.96 inHg , 1014.6 hPa
Clouds: Overcast
Visibility: 10 miles , 16 km
Cloud details: Few Clouds 8000 ft
Overcast 18000 ft
2021/12/08 07:52 KOMA 080752Z 00000KT 10SM FEW080 OVC180 M04/M08 A2996 RMK AO2 SLP155 T10441083
KRDK - Red Oak, Iowa, USA
Distance from station: N 70mi, 112km
Updated: Wed, 08-Dec-2021 2:35am CST
Overcast
Overcast
 Wind from calm
Wind: Calm
Temperature: 25°F , -4°C
Dew Point: 19°F , -7°C
Humidity: 80%
Barometer: 29.97 inHg , 1014.9 hPa
Clouds: Overcast
Visibility: 10 miles , 16 km
Cloud details: Mostly cloudy 7500 ft
Overcast 14000 ft
2021/12/08 08:35 KRDK 080835Z AUTO 00000KT 10SM BKN075 OVC140 M04/M07 A2997 RMK AO2
 
KSTJ - Saint Joseph, Missouri, USA
Distance from station: SW 23mi, 37km
Updated: Wed, 08-Dec-2021 1:53am CST
Clear
Clear
 Wind from SSE
Wind: SSE 5 mph , 7 km/h
Temperature: 28°F , -2°C
Wind Chill: 22°F , -6°C
Dew Point: 21°F , -6°C
Humidity: 74%
Barometer: 29.99 inHg , 1015.6 hPa
Clouds: Clear
Visibility: 10 miles , 16 km
2021/12/08 07:53 KSTJ 080753Z AUTO 16004KT 10SM CLR M02/M06 A2999 RMK AO2 SLP161 T10171061
KTOP - Topeka, Kansas, USA
Distance from station: SW 85mi, 137km
Updated: Wed, 08-Dec-2021 1:53am CST
Clear
Clear
 Wind from calm
Wind: Calm
Temperature: 27°F , -3°C
Dew Point: 19°F , -7°C
Humidity: 74%
Barometer: 29.99 inHg , 1015.6 hPa
Clouds: Clear
Visibility: 10 miles , 16 km
2021/12/08 07:53 KTOP 080753Z AUTO 00000KT 10SM CLR M03/M07 A2999 RMK AO2 SLP162 T10281067
KICT - Wichita, Kansas, USA
Distance from station: SW 215mi, 346km
Updated: Wed, 08-Dec-2021 1:53am CST
Clear
Clear
 Wind from calm
Wind: Calm
Temperature: 27°F , -3°C
Dew Point: 19°F , -7°C
Humidity: 74%
Barometer: 29.99 inHg , 1015.6 hPa
Clouds: Clear
Visibility: 10 miles , 16 km
2021/12/08 07:53 KICT 080753Z 00000KT 10SM CLR M03/M07 A2999 RMK AO2 SLP164 T10281067